Time;durP1;ratioP1;P1;durP2;ratioP2;P2;SDS_P1;SDS_P2;PMS_P1;PMS_P2;Temp;Humidity;BMP_temperature;BMP_pressure;BME280_temperature;BME280_humidity;BME280_pressure;Samples;Min_cycle;Max_cycle;Signal;HPM_P1;HPM_P2
2024/01/23 00:02:16;;;;;;;5.38;1.10;;;;;;;9.17;69.35;97704.38;4894850;29;20051;-79
2024/01/23 00:04:41;;;;;;;7.47;1.35;;;;;;;9.28;68.71;97709.84;4875786;29;20062;-80
2024/01/23 00:07:06;;;;;;;9.00;1.83;;;;;;;9.18;68.56;97703.38;4893769;29;20043;-79
2024/01/23 00:09:32;;;;;;;5.95;1.60;;;;;;;9.25;68.22;97703.25;4877166;29;20107;-79
2024/01/23 00:11:58;;;;;;;5.80;1.65;;;;;;;9.29;68.31;97714.03;4900503;29;20091;-79
2024/01/23 00:14:24;;;;;;;5.72;1.30;;;;;;;9.10;67.76;97706.28;4882419;29;20772;-78
2024/01/23 00:16:49;;;;;;;5.95;1.15;;;;;;;9.20;68.17;97713.53;4876712;29;20374;-79
2024/01/23 00:19:15;;;;;;;6.80;1.42;;;;;;;9.08;67.65;97716.13;4862476;29;20095;-78
2024/01/23 00:21:40;;;;;;;5.75;1.20;;;;;;;9.20;67.97;97713.53;4896870;29;20048;-78
2024/01/23 00:24:05;;;;;;;8.32;1.60;;;;;;;9.14;67.12;97717.81;4901155;29;20048;-79
2024/01/23 00:26:31;;;;;;;6.53;1.73;;;;;;;9.15;66.99;97711.63;4909898;29;20421;-79
2024/01/23 00:28:56;;;;;;;5.90;1.08;;;;;;;9.20;67.10;97721.31;4880824;29;20502;-79
2024/01/23 00:31:21;;;;;;;5.15;1.77;;;;;;;9.03;67.12;97725.56;4885341;29;20035;-80
2024/01/23 00:33:47;;;;;;;7.90;1.92;;;;;;;9.03;66.65;97710.78;4880802;29;20032;-78
2024/01/23 00:36:12;;;;;;;7.03;1.38;;;;;;;8.98;67.23;97714.03;4880701;29;20035;-78
2024/01/23 00:38:38;;;;;;;6.80;2.83;;;;;;;9.11;66.56;97728.63;4894647;29;20078;-79
2024/01/23 00:41:03;;;;;;;2.83;1.02;;;;;;;9.24;67.60;97729.50;4879924;29;20377;-79
2024/01/23 00:43:29;;;;;;;5.50;1.35;;;;;;;9.29;67.07;97729.63;4865952;29;20040;-78
2024/01/23 00:45:55;;;;;;;3.95;1.00;;;;;;;9.13;65.93;97737.03;4882365;29;20042;-79
2024/01/23 00:48:23;;;;;;;5.85;0.98;;;;;;;9.29;65.85;97729.63;4885477;29;20047;-79
2024/01/23 00:50:48;;;;;;;10.95;1.67;;;;;;;9.33;66.89;97741.16;4892266;29;20036;-78
2024/01/23 00:53:14;;;;;;;8.10;1.40;;;;;;;9.30;66.43;97757.16;4894108;29;20039;-79
2024/01/23 00:55:39;;;;;;;11.70;1.55;;;;;;;9.27;66.15;97749.81;4880498;29;20039;-78
2024/01/23 00:58:05;;;;;;;7.25;1.60;;;;;;;9.31;66.95;97754.34;4864298;29;20046;-79
2024/01/23 01:00:30;;;;;;;7.25;2.35;;;;;;;9.19;66.67;97745.75;4891450;29;20122;-78
2024/01/23 01:02:56;;;;;;;4.60;0.85;;;;;;;9.29;66.38;97753.00;4905862;29;20509;-79
2024/01/23 01:05:21;;;;;;;7.53;2.10;;;;;;;9.21;67.33;97761.88;4917166;29;20055;-78
2024/01/23 01:07:47;;;;;;;3.72;1.20;;;;;;;9.27;66.52;97768.81;4905438;29;20477;-79
2024/01/23 01:10:12;;;;;;;4.07;0.90;;;;;;;9.17;67.32;97779.72;4906655;29;20416;-77
2024/01/23 01:12:37;;;;;;;6.95;1.15;;;;;;;9.06;67.37;97766.69;4898207;29;20027;-77
2024/01/23 01:15:03;;;;;;;5.45;1.00;;;;;;;9.04;66.59;97760.91;4906288;29;20051;-79
2024/01/23 01:17:28;;;;;;;7.63;1.80;;;;;;;9.07;66.54;97771.66;4885078;29;20642;-77
2024/01/23 01:19:54;;;;;;;4.50;0.88;;;;;;;9.08;66.79;97769.84;4893039;29;20039;-78
2024/01/23 01:22:20;;;;;;;4.13;1.10;;;;;;;9.11;67.11;97765.00;4898684;29;20035;-78
2024/01/23 01:24:46;;;;;;;4.80;0.70;;;;;;;9.13;66.01;97778.59;4922945;29;20150;-78
2024/01/23 01:27:11;;;;;;;4.43;1.38;;;;;;;9.12;66.78;97781.41;4899068;29;20039;-78
2024/01/23 01:29:37;;;;;;;4.78;1.50;;;;;;;9.11;66.83;97765.00;4910603;29;20044;-78
2024/01/23 01:32:02;;;;;;;9.35;1.55;;;;;;;8.98;66.35;97757.41;4915646;29;20102;-78
2024/01/23 01:34:28;;;;;;;3.60;0.90;;;;;;;9.02;66.67;97768.94;4902310;29;20032;-77
2024/01/23 01:36:53;;;;;;;5.78;1.00;;;;;;;8.85;66.96;97765.34;4896860;29;20586;-78
2024/01/23 01:39:18;;;;;;;4.40;1.20;;;;;;;8.99;66.96;97759.75;4888964;29;20538;-77
2024/01/23 01:41:51;;;;;;;5.68;1.77;;;;;;;9.13;67.30;97770.81;4886296;29;20035;-77
2024/01/23 01:44:20;;;;;;;7.75;1.58;;;;;;;8.87;67.04;97752.94;4909905;29;20073;-77
2024/01/23 01:46:45;;;;;;;4.97;1.60;;;;;;;8.98;66.57;97754.81;4916878;29;20036;-77
2024/01/23 01:49:11;;;;;;;6.55;1.30;;;;;;;9.03;67.63;97762.75;4907977;29;20036;-77
2024/01/23 01:51:37;;;;;;;9.48;1.67;;;;;;;8.87;67.70;97765.91;4916040;29;20070;-77
2024/01/23 01:54:04;;;;;;;7.38;1.30;;;;;;;8.98;66.93;97778.97;4905056;29;20047;-77
2024/01/23 01:56:29;;;;;;;7.00;1.60;;;;;;;9.06;67.17;97772.66;4871302;29;20063;-77
2024/01/23 01:58:57;;;;;;;9.18;2.17;;;;;;;9.06;67.39;97788.25;4906668;29;20231;-83
2024/01/23 02:01:23;;;;;;;6.63;1.42;;;;;;;9.02;68.09;97779.31;4927894;29;20040;-81
2024/01/23 02:03:49;;;;;;;8.45;2.40;;;;;;;8.94;67.98;97771.81;4888552;29;20079;-84
2024/01/23 02:06:14;;;;;;;7.38;1.55;;;;;;;8.99;67.69;97787.53;4907208;29;20043;-82
2024/01/23 02:08:40;;;;;;;7.68;1.67;;;;;;;8.94;68.64;97780.41;4898397;29;20568;-82
2024/01/23 02:11:05;;;;;;;7.47;1.90;;;;;;;8.91;68.19;97774.84;4895968;29;20051;-78
2024/01/23 02:13:31;;;;;;;6.32;1.63;;;;;;;8.95;69.00;97783.81;4920530;29;20476;-77
2024/01/23 02:15:56;;;;;;;9.02;1.88;;;;;;;9.05;67.70;97788.47;4879628;29;20028;-78
2024/01/23 02:18:22;;;;;;;8.88;1.33;;;;;;;9.00;68.30;97794.34;4931478;29;20045;-78
2024/01/23 02:20:47;;;;;;;6.60;1.92;;;;;;;8.76;69.14;97791.59;4887839;29;20043;-78
2024/01/23 02:23:13;;;;;;;6.82;1.23;;;;;;;8.98;68.57;97785.97;4914402;29;20107;-77
2024/01/23 02:25:39;;;;;;;9.85;1.52;;;;;;;8.64;70.09;97790.75;4908759;29;20032;-77
2024/01/23 02:28:05;;;;;;;7.55;1.85;;;;;;;8.75;69.29;97807.41;4917657;29;20483;-77
2024/01/23 02:30:31;;;;;;;8.40;2.05;;;;;;;8.78;69.40;97801.78;4917513;29;20106;-78
2024/01/23 02:32:56;;;;;;;11.45;2.00;;;;;;;8.75;69.18;97790.00;4931096;29;20036;-78
2024/01/23 02:35:22;;;;;;;8.15;1.60;;;;;;;8.78;69.29;97804.38;4894310;29;20496;-78
2024/01/23 02:37:47;;;;;;;10.10;2.05;;;;;;;8.80;69.13;97805.72;4904940;29;20147;-76
2024/01/23 02:40:13;;;;;;;9.50;2.00;;;;;;;8.68;69.75;97817.84;4889710;29;20511;-77
2024/01/23 02:42:38;;;;;;;12.57;2.80;;;;;;;8.78;68.47;97805.16;4911893;29;20047;-77
2024/01/23 02:45:04;;;;;;;11.55;2.10;;;;;;;8.80;69.15;97799.75;4908333;29;20031;-78
2024/01/23 02:47:29;;;;;;;9.63;2.25;;;;;;;8.79;68.53;97798.16;4925016;29;20039;-77
2024/01/23 02:49:54;;;;;;;9.65;1.63;;;;;;;8.62;68.69;97797.97;4932569;29;20055;-78
2024/01/23 02:52:20;;;;;;;13.30;2.58;;;;;;;8.54;68.08;97816.41;4908926;29;20035;-77
2024/01/23 02:54:45;;;;;;;11.18;2.22;;;;;;;8.63;67.94;97812.50;4928950;29;20913;-77
2024/01/23 02:57:12;;;;;;;8.18;1.95;;;;;;;8.65;68.49;97828.66;4907373;29;20027;-78
2024/01/23 02:59:38;;;;;;;8.80;1.77;;;;;;;8.69;68.80;97840.22;4895587;29;20555;-78
2024/01/23 03:02:03;;;;;;;9.57;1.50;;;;;;;8.83;67.25;97832.31;4918176;29;20031;-78
2024/01/23 03:04:28;;;;;;;11.40;2.28;;;;;;;8.81;67.13;97827.31;4883082;29;20055;-79
2024/01/23 03:06:54;;;;;;;7.60;1.70;;;;;;;8.81;66.98;97829.91;4903308;29;20492;-79
2024/01/23 03:09:19;;;;;;;12.40;2.25;;;;;;;8.71;67.96;97853.78;4893967;29;20035;-78
2024/01/23 03:11:45;;;;;;;8.43;1.67;;;;;;;8.93;67.60;97861.16;4924176;29;20102;-78
2024/01/23 03:14:11;;;;;;;8.20;2.00;;;;;;;8.87;67.82;97856.81;4912071;29;20071;-78
2024/01/23 03:16:36;;;;;;;8.73;1.40;;;;;;;8.80;67.56;97857.66;4912069;29;20043;-77
2024/01/23 03:19:02;;;;;;;9.07;1.95;;;;;;;8.82;67.26;97854.84;4917205;29;20036;-78
2024/01/23 03:21:28;;;;;;;14.35;2.50;;;;;;;8.98;66.74;97863.91;4923143;29;20151;-77
2024/01/23 03:23:53;;;;;;;9.90;2.10;;;;;;;9.16;66.46;97865.69;4910079;29;20492;-79
2024/01/23 03:26:19;;;;;;;9.73;1.98;;;;;;;9.13;66.63;97881.69;4899981;29;20512;-77
2024/01/23 03:28:44;;;;;;;10.00;2.35;;;;;;;9.18;66.80;97874.84;4894243;29;20354;-78
2024/01/23 03:31:10;;;;;;;10.60;2.83;;;;;;;9.12;66.57;97880.91;4921453;29;20040;-78
2024/01/23 03:33:35;;;;;;;15.43;2.38;;;;;;;9.09;66.88;97883.94;4889517;29;20047;-77
2024/01/23 03:36:00;;;;;;;12.70;1.88;;;;;;;9.18;66.51;97895.66;4913214;29;20035;-79
2024/01/23 03:38:26;;;;;;;9.77;2.13;;;;;;;8.79;66.80;97878.66;4905488;29;20058;-78
2024/01/23 03:40:51;;;;;;;9.45;1.83;;;;;;;9.02;66.44;97869.44;4922341;29;20040;-77
2024/01/23 03:43:16;;;;;;;7.43;1.60;;;;;;;9.04;67.23;97877.81;4905781;29;20056;-77
2024/01/23 03:45:42;;;;;;;11.85;2.33;;;;;;;8.66;67.94;97874.38;4890703;29;20067;-77
2024/01/23 03:48:07;;;;;;;8.15;1.60;;;;;;;9.05;66.71;97884.56;4899535;29;20032;-78
2024/01/23 03:50:33;;;;;;;6.57;2.08;;;;;;;9.16;65.94;97896.84;4875699;29;20039;-79
2024/01/23 03:52:58;;;;;;;9.32;2.15;;;;;;;9.02;66.66;97908.41;4921496;29;20123;-79
2024/01/23 03:55:25;;;;;;;9.50;2.22;;;;;;;9.11;66.16;97910.47;4905630;29;20066;-79
2024/01/23 03:57:51;;;;;;;10.88;2.40;;;;;;;9.16;66.30;97912.44;4888001;29;20034;-78
2024/01/23 04:00:17;;;;;;;9.18;1.73;;;;;;;9.18;65.84;97913.84;4921415;29;20039;-77
2024/01/23 04:02:43;;;;;;;9.45;1.90;;;;;;;9.21;66.43;97915.19;4907779;29;20028;-78
2024/01/23 04:05:08;;;;;;;11.68;1.88;;;;;;;9.26;66.01;97917.94;4890564;29;20036;-78
2024/01/23 04:07:34;;;;;;;14.00;1.73;;;;;;;9.09;65.38;97924.72;4909399;29;20114;-78
2024/01/23 04:10:00;;;;;;;9.85;1.80;;;;;;;8.95;66.64;97929.25;4907837;29;20040;-78
2024/01/23 04:12:26;;;;;;;13.63;2.25;;;;;;;9.02;66.15;97931.78;4897236;29;20826;-78
2024/01/23 04:14:51;;;;;;;8.75;2.25;;;;;;;8.99;65.67;97941.56;4895750;29;20028;-78
2024/01/23 04:17:17;;;;;;;9.52;2.17;;;;;;;8.78;65.48;97952.38;4921465;29;20047;-77
2024/01/23 04:19:42;;;;;;;10.20;1.92;;;;;;;9.06;64.28;97951.91;4888776;29;20499;-78
2024/01/23 04:22:07;;;;;;;6.47;1.55;;;;;;;9.10;64.01;97960.88;4907128;29;20044;-83
2024/01/23 04:24:36;;;;;;;9.80;2.10;;;;;;;9.06;64.80;97961.50;4899326;29;20131;-80
2024/01/23 04:27:02;;;;;;;8.02;2.13;;;;;;;8.70;65.21;97974.19;4906089;29;20028;-82
2024/01/23 04:29:28;;;;;;;6.55;2.30;;;;;;;8.87;64.97;97971.06;4863991;29;20643;-81
2024/01/23 04:31:53;;;;;;;10.98;1.90;;;;;;;9.06;64.41;97984.88;4906153;29;20083;-84
2024/01/23 04:34:19;;;;;;;6.90;1.73;;;;;;;9.08;64.43;97986.28;4890844;29;20492;-82
2024/01/23 04:36:44;;;;;;;8.23;1.90;;;;;;;9.32;63.47;97983.81;4906797;29;20129;-83
2024/01/23 04:39:10;;;;;;;6.35;1.98;;;;;;;9.12;63.52;97979.63;4890186;29;20523;-79
2024/01/23 04:41:35;;;;;;;6.97;1.70;;;;;;;9.22;63.62;97978.34;4874398;29;20031;-82
2024/01/23 04:44:01;;;;;;;7.25;1.67;;;;;;;9.21;63.65;97977.53;4876359;29;20047;-83
2024/01/23 04:46:26;;;;;;;7.18;1.58;;;;;;;8.93;63.55;97981.41;4921285;29;20027;-84
2024/01/23 04:48:52;;;;;;;8.95;1.85;;;;;;;8.89;64.18;97975.03;4904843;29;20118;-83
2024/01/23 04:51:17;;;;;;;5.95;1.38;;;;;;;8.72;64.35;97974.00;4889813;29;20035;-80
2024/01/23 04:53:42;;;;;;;10.15;2.47;;;;;;;8.81;64.23;97963.13;4892199;29;20036;-82
2024/01/23 04:56:08;;;;;;;8.43;1.42;;;;;;;8.67;64.03;97968.63;4891125;29;20511;-80
2024/01/23 04:58:33;;;;;;;6.43;1.77;;;;;;;8.49;64.47;97974.56;4906073;29;20047;-82
2024/01/23 05:00:58;;;;;;;7.47;1.85;;;;;;;8.56;63.47;97964.94;4893152;29;20037;-82
2024/01/23 05:03:24;;;;;;;6.43;1.35;;;;;;;8.56;64.00;97957.16;4896902;29;20075;-79
2024/01/23 05:05:49;;;;;;;3.67;1.05;;;;;;;8.64;63.70;97969.88;4890521;29;20031;-79
2024/01/23 05:08:15;;;;;;;3.60;1.20;;;;;;;8.55;63.40;97973.72;4887744;29;20067;-85
2024/01/23 05:10:43;;;;;;;5.70;1.63;;;;;;;8.71;62.98;97993.97;4908745;29;20130;-81
2024/01/23 05:13:08;;;;;;;6.00;1.35;;;;;;;8.63;62.18;98004.59;4872861;29;20028;-83
2024/01/23 05:15:34;;;;;;;6.20;1.38;;;;;;;8.73;62.69;98012.72;4885918;29;20098;-82
2024/01/23 05:17:59;;;;;;;5.05;1.35;;;;;;;8.70;62.56;98013.13;4904793;29;20087;-83
2024/01/23 05:20:24;;;;;;;7.85;1.63;;;;;;;8.65;62.76;98020.75;4907098;29;20031;-84
2024/01/23 05:22:50;;;;;;;6.60;1.63;;;;;;;8.49;63.50;98036.84;4876525;29;20480;-80
2024/01/23 05:25:17;;;;;;;6.47;1.15;;;;;;;8.67;62.35;98029.16;4911244;29;20068;-80
2024/01/23 05:27:43;;;;;;;10.82;1.50;;;;;;;8.67;62.67;98036.94;4907996;29;20141;-83
2024/01/23 05:30:08;;;;;;;5.28;0.93;;;;;;;8.86;62.05;98032.63;4890294;29;20299;-84
2024/01/23 05:32:34;;;;;;;6.38;1.63;;;;;;;8.72;61.86;98047.50;4882877;29;20035;-78
2024/01/23 05:35:03;;;;;;;5.00;1.38;;;;;;;8.51;63.19;98066.00;4889847;29;20044;-78
2024/01/23 05:37:29;;;;;;;12.15;1.98;;;;;;;8.49;62.73;98070.59;4904311;29;20115;-78
2024/01/23 05:39:55;;;;;;;9.13;1.30;;;;;;;8.60;63.09;98080.31;4889656;29;20042;-78
2024/01/23 05:42:20;;;;;;;4.88;1.30;;;;;;;8.74;62.55;98084.44;4904409;29;20416;-77
2024/01/23 05:44:45;;;;;;;5.90;2.00;;;;;;;8.66;62.02;98089.88;4891869;29;20131;-78
2024/01/23 05:47:11;;;;;;;6.93;1.40;;;;;;;8.65;61.85;98093.44;4907567;29;20031;-78
2024/01/23 05:49:36;;;;;;;7.13;1.73;;;;;;;8.78;62.27;98101.16;4891891;29;20056;-77
2024/01/23 05:52:02;;;;;;;7.90;1.52;;;;;;;8.72;62.33;98107.22;4901498;29;20038;-78
2024/01/23 05:54:28;;;;;;;6.18;1.40;;;;;;;8.74;62.20;98118.19;4907748;29;20040;-78
2024/01/23 05:56:53;;;;;;;5.43;1.30;;;;;;;8.71;62.55;98118.59;4906585;29;20400;-78
2024/01/23 05:59:18;;;;;;;7.68;1.42;;;;;;;8.76;61.98;98120.56;4907955;29;20095;-78
2024/01/23 06:01:44;;;;;;;5.40;0.93;;;;;;;8.67;62.08;98120.03;4908519;29;20039;-77
2024/01/23 06:04:09;;;;;;;6.03;1.25;;;;;;;8.56;62.20;98123.25;4891945;29;20062;-78
2024/01/23 06:06:41;;;;;;;9.68;1.70;;;;;;;8.66;62.46;98134.00;4920856;29;20396;-78
2024/01/23 06:09:11;;;;;;;7.05;1.35;;;;;;;8.76;61.68;98131.75;4908618;29;20039;-79
2024/01/23 06:11:38;;;;;;;5.43;1.38;;;;;;;8.63;61.69;98142.19;4925225;29;20032;-77
2024/01/23 06:14:03;;;;;;;4.60;1.45;;;;;;;8.57;62.10;98143.84;4893746;29;20612;-78
2024/01/23 06:16:29;;;;;;;6.32;1.30;;;;;;;8.54;62.25;98149.44;4894645;29;20038;-78
2024/01/23 06:18:55;;;;;;;7.57;1.83;;;;;;;8.56;62.57;98155.19;4889782;29;20031;-78
2024/01/23 06:21:20;;;;;;;7.50;1.30;;;;;;;8.57;62.62;98153.44;4911895;29;20130;-79
2024/01/23 06:23:46;;;;;;;6.38;1.58;;;;;;;8.56;62.35;98163.00;4887106;29;20051;-78
2024/01/23 06:26:11;;;;;;;8.40;1.40;;;;;;;8.55;62.42;98165.78;4909589;29;20520;-79
2024/01/23 06:28:36;;;;;;;7.93;1.10;;;;;;;8.38;62.20;98155.03;4907996;29;20082;-78
2024/01/23 06:31:02;;;;;;;5.57;1.33;;;;;;;8.23;62.48;98163.88;4908845;29;20035;-78
2024/01/23 06:33:27;;;;;;;5.90;1.08;;;;;;;8.06;63.17;98173.13;4890665;29;20039;-78
2024/01/23 06:35:53;;;;;;;8.98;1.92;;;;;;;7.97;64.01;98180.31;4878042;29;20039;-78
2024/01/23 06:38:20;;;;;;;5.07;1.15;;;;;;;7.99;65.07;98193.88;4922680;29;20397;-78
2024/01/23 06:40:45;;;;;;;4.97;1.30;;;;;;;7.95;64.43;98203.06;4891938;29;20155;-78
2024/01/23 06:43:11;;;;;;;5.15;1.75;;;;;;;7.90;64.59;98215.84;4909465;29;20036;-82
2024/01/23 06:45:36;;;;;;;6.93;1.80;;;;;;;7.96;64.54;98217.59;4907759;29;21544;-83
2024/01/23 06:48:02;;;;;;;10.38;1.88;;;;;;;7.90;64.18;98220.22;4907370;29;20024;-84
2024/01/23 06:50:29;;;;;;;6.32;1.30;;;;;;;7.90;64.64;98222.81;4900866;29;20039;-84
2024/01/23 06:52:54;;;;;;;5.22;1.27;;;;;;;7.78;64.40;98228.59;4874647;29;20053;-83
2024/01/23 06:55:19;;;;;;;5.63;1.75;;;;;;;7.66;64.78;98238.78;4887639;29;20058;-82
2024/01/23 06:57:45;;;;;;;5.13;1.40;;;;;;;7.79;65.56;98255.31;4908596;29;20511;-84
2024/01/23 07:00:11;;;;;;;8.98;1.67;;;;;;;7.83;65.38;98253.91;4890671;29;20383;-84
2024/01/23 07:02:37;;;;;;;12.23;1.73;;;;;;;7.83;65.55;98269.47;4899495;29;20387;-83
2024/01/23 07:05:03;;;;;;;5.50;1.38;;;;;;;7.90;64.96;98277.25;4891121;29;20032;-82
2024/01/23 07:07:28;;;;;;;8.20;1.88;;;;;;;7.88;65.01;98280.84;4884809;29;20035;-82
2024/01/23 07:09:53;;;;;;;6.15;1.40;;;;;;;8.02;64.87;98273.88;4898248;29;20061;-84
2024/01/23 07:12:19;;;;;;;4.63;1.55;;;;;;;8.09;65.66;98286.84;4870613;29;20130;-82
2024/01/23 07:14:44;;;;;;;10.73;1.98;;;;;;;8.13;64.22;98271.69;4906511;29;20042;-84
2024/01/23 07:17:10;;;;;;;7.85;1.52;;;;;;;8.20;64.87;98272.47;4905172;29;20392;-81
2024/01/23 07:19:36;;;;;;;4.63;1.45;;;;;;;8.30;64.05;98278.03;4885920;29;20055;-81
2024/01/23 07:22:02;;;;;;;6.90;1.33;;;;;;;8.27;64.37;98275.84;4922644;29;20114;-83
2024/01/23 07:24:27;;;;;;;10.32;1.92;;;;;;;8.31;63.64;98290.03;4890969;29;20503;-82
2024/01/23 07:26:53;;;;;;;6.13;1.52;;;;;;;8.31;64.82;98292.63;4875394;29;20392;-82
2024/01/23 07:29:18;;;;;;;5.50;1.70;;;;;;;8.16;65.35;98292.81;4934701;29;20039;-81
2024/01/23 07:31:44;;;;;;;8.68;2.65;;;;;;;8.23;65.04;98298.00;4906240;29;20146;-84
2024/01/23 07:34:09;;;;;;;6.93;1.60;;;;;;;8.16;64.50;98298.00;4906225;29;20032;-84
2024/01/23 07:36:35;;;;;;;5.88;1.40;;;;;;;8.18;64.95;98308.97;4905666;29;20033;-82
2024/01/23 07:39:01;;;;;;;8.23;1.65;;;;;;;8.33;65.27;98310.56;4892012;29;20042;-83
2024/01/23 07:41:26;;;;;;;7.93;2.33;;;;;;;8.28;64.70;98311.19;4890624;29;20035;-82
2024/01/23 07:43:51;;;;;;;6.25;1.90;;;;;;;8.28;64.67;98307.75;4910062;29;20566;-84
2024/01/23 07:46:17;;;;;;;6.88;1.92;;;;;;;8.33;65.22;98321.75;4890189;29;20039;-83
2024/01/23 07:48:43;;;;;;;9.02;1.88;;;;;;;8.38;65.49;98324.53;4931452;29;20047;-82
2024/01/23 07:51:08;;;;;;;7.45;1.65;;;;;;;8.51;65.58;98326.34;4906180;29;20058;-80
2024/01/23 07:53:34;;;;;;;7.85;2.03;;;;;;;8.48;63.83;98321.53;4874572;29;20060;-79
2024/01/23 07:56:00;;;;;;;4.10;1.75;;;;;;;8.41;64.07;98315.53;4877214;29;20488;-78
2024/01/23 07:58:25;;;;;;;7.93;1.70;;;;;;;8.31;63.72;98323.75;4906590;29;20036;-79
2024/01/23 08:00:51;;;;;;;5.80;2.33;;;;;;;8.21;65.23;98338.94;4890947;29;20038;-78
2024/01/23 08:03:16;;;;;;;10.48;2.20;;;;;;;8.04;65.26;98341.91;4893939;29;20032;-78
2024/01/23 08:05:42;;;;;;;6.68;1.88;;;;;;;8.10;64.96;98353.28;4905145;29;20480;-79
2024/01/23 08:08:07;;;;;;;5.65;1.40;;;;;;;7.97;65.40;98356.66;4925594;29;20110;-78
2024/01/23 08:10:34;;;;;;;7.65;2.08;;;;;;;7.98;64.76;98367.84;4912773;29;20035;-78
2024/01/23 08:13:00;;;;;;;6.53;1.65;;;;;;;7.99;65.00;98370.22;4891396;29;20627;-78
2024/01/23 08:15:25;;;;;;;7.22;1.55;;;;;;;7.99;66.04;98370.22;4932064;29;20120;-78
2024/01/23 08:17:51;;;;;;;7.88;2.53;;;;;;;7.91;64.81;98360.03;4907939;29;20532;-78
2024/01/23 08:20:16;;;;;;;5.53;1.35;;;;;;;8.07;66.25;98383.00;4900836;29;20042;-78
2024/01/23 08:22:42;;;;;;;3.33;1.80;;;;;;;8.19;65.46;98380.63;4894336;29;20406;-78
2024/01/23 08:25:08;;;;;;;5.18;1.52;;;;;;;8.24;65.18;98378.25;4895943;29;20040;-79
2024/01/23 08:27:33;;;;;;;6.93;2.05;;;;;;;8.32;64.93;98377.22;4938270;29;20039;-78
2024/01/23 08:29:59;;;;;;;5.78;1.95;;;;;;;8.32;65.55;98379.03;4911678;29;20075;-77
2024/01/23 08:32:25;;;;;;;4.53;1.67;;;;;;;8.41;65.07;98388.22;4907787;29;20049;-78
2024/01/23 08:34:50;;;;;;;6.47;1.80;;;;;;;8.49;64.88;98395.03;4929867;29;20035;-78
2024/01/23 08:37:16;;;;;;;8.40;2.13;;;;;;;8.53;64.88;98398.81;4888950;29;20048;-79
2024/01/23 08:39:42;;;;;;;8.82;2.33;;;;;;;8.64;64.99;98395.63;4874808;29;20039;-78
2024/01/23 08:42:07;;;;;;;6.82;2.28;;;;;;;8.65;64.58;98399.00;4900200;29;20123;-78
2024/01/23 08:44:35;;;;;;;10.43;1.88;;;;;;;8.60;64.61;98400.44;4893254;29;20044;-79
2024/01/23 08:47:01;;;;;;;10.77;3.50;;;;;;;8.63;65.19;98394.03;4911559;29;20151;-79
2024/01/23 08:49:26;;;;;;;5.68;1.98;;;;;;;8.83;64.22;98404.38;4904401;29;20356;-79
2024/01/23 08:51:52;;;;;;;6.28;2.03;;;;;;;8.95;65.15;98404.56;4907344;29;20039;-79
2024/01/23 08:54:19;;;;;;;9.88;2.75;;;;;;;9.03;64.86;98409.56;4872138;29;20040;-78
2024/01/23 08:56:46;;;;;;;8.57;2.45;;;;;;;9.06;64.57;98400.53;4896163;29;20032;-77
2024/01/23 08:59:13;;;;;;;8.73;3.13;;;;;;;9.17;63.64;98405.91;4911363;29;20048;-79
2024/01/23 09:01:38;;;;;;;7.45;2.42;;;;;;;9.15;64.01;98407.09;4907479;29;20035;-77
2024/01/23 09:04:04;;;;;;;8.32;2.10;;;;;;;9.19;63.50;98410.91;4928128;29;20366;-77
2024/01/23 09:06:29;;;;;;;12.10;2.55;;;;;;;9.28;62.93;98419.28;4887376;29;20032;-78
2024/01/23 09:08:56;;;;;;;9.35;2.10;;;;;;;9.37;62.94;98420.63;4909137;29;20059;-78
2024/01/23 09:11:21;;;;;;;9.00;2.33;;;;;;;9.37;63.28;98431.84;4909947;29;20047;-78
2024/01/23 09:13:47;;;;;;;13.52;2.53;;;;;;;9.14;63.52;98441.91;4912012;29;20404;-82
2024/01/23 09:16:13;;;;;;;8.95;2.83;;;;;;;9.19;63.33;98444.69;4896286;29;20067;-83
2024/01/23 09:18:40;;;;;;;10.73;2.35;;;;;;;9.14;63.87;98447.88;4898825;29;20035;-81
2024/01/23 09:21:08;;;;;;;10.95;2.08;;;;;;;9.13;64.04;98448.91;4909647;29;20062;-82
2024/01/23 09:23:34;;;;;;;8.98;2.33;;;;;;;9.13;63.21;98456.69;4929768;29;20043;-83
2024/01/23 09:25:59;;;;;;;10.20;3.35;;;;;;;9.04;63.65;98476.09;4924696;29;20445;-82
2024/01/23 09:28:25;;;;;;;9.23;2.55;;;;;;;9.13;63.73;98469.69;4916031;29;20035;-85
2024/01/23 09:30:50;;;;;;;13.70;1.92;;;;;;;9.18;63.29;98477.69;4901826;29;20039;-82
2024/01/23 09:33:15;;;;;;;14.57;2.33;;;;;;;9.30;63.12;98482.22;4900697;29;20467;-82
2024/01/23 09:35:41;;;;;;;11.23;3.35;;;;;;;9.28;63.22;98481.66;4916740;29;20469;-83
2024/01/23 09:38:06;;;;;;;7.85;2.22;;;;;;;9.29;63.26;98483.25;4902654;29;20035;-81
2024/01/23 09:40:32;;;;;;;8.02;2.25;;;;;;;9.22;63.15;98480.66;4896901;29;20050;-84
2024/01/23 09:42:57;;;;;;;10.00;2.20;;;;;;;9.34;63.16;98486.03;4900903;29;20036;-82
2024/01/23 09:45:29;;;;;;;11.68;2.92;;;;;;;9.47;62.61;98491.19;4903193;29;20035;-83
2024/01/23 09:47:55;;;;;;;14.02;2.65;;;;;;;9.33;63.75;98495.63;4919212;29;20452;-83
2024/01/23 09:50:24;;;;;;;15.75;3.00;;;;;;;9.49;62.76;98497.00;4880860;29;21564;-81
2024/01/23 09:52:50;;;;;;;12.07;2.55;;;;;;;9.54;62.25;98499.78;4879006;29;20067;-83
2024/01/23 09:55:16;;;;;;;10.30;2.78;;;;;;;9.50;62.38;98501.19;4907893;29;20111;-81
2024/01/23 09:57:43;;;;;;;7.35;2.42;;;;;;;9.53;63.26;98508.59;4924103;29;20507;-83
2024/01/23 10:00:12;;;;;;;9.18;2.40;;;;;;;9.41;62.25;98514.59;4897208;29;20213;-83
2024/01/23 10:02:42;;;;;;;14.38;2.92;;;;;;;9.51;62.65;98526.19;4894860;29;20036;-81
2024/01/23 10:05:09;;;;;;;12.32;2.17;;;;;;;9.55;61.91;98519.56;4897188;29;20115;-82
2024/01/23 10:07:39;;;;;;;14.00;3.38;;;;;;;9.59;62.44;98529.56;4881854;29;20520;-83
2024/01/23 10:10:14;;;;;;;8.38;2.42;;;;;;;9.57;61.68;98527.16;4882307;29;20039;-83
2024/01/23 10:12:49;;;;;;;;;;;;;;;9.73;62.32;98528.53;4896691;29;20086;-78
2024/01/23 10:15:21;;;;;;;10.20;2.50;;;;;;;9.61;62.84;98528.34;4892171;29;20398;-78
2024/01/23 10:17:47;;;;;;;16.52;2.75;;;;;;;9.81;62.72;98528.28;4881028;29;20245;-78
2024/01/23 10:20:13;;;;;;;10.80;1.92;;;;;;;9.87;62.33;98519.69;4896108;29;20393;-78
2024/01/23 10:22:38;;;;;;;10.60;2.78;;;;;;;9.99;62.62;98516.41;4888976;29;20064;-78
2024/01/23 10:25:13;;;;;;;8.52;2.13;;;;;;;10.16;61.77;98509.75;4896342;29;20055;-78
2024/01/23 10:27:39;;;;;;;9.75;2.40;;;;;;;10.24;61.19;98501.69;4914361;29;20659;-79
2024/01/23 10:30:05;;;;;;;10.15;2.13;;;;;;;10.30;60.92;98487.84;4902365;29;20130;-78
2024/01/23 10:32:31;;;;;;;11.10;2.70;;;;;;;10.35;60.10;98491.63;4906878;29;20501;-78
2024/01/23 10:34:57;;;;;;;9.65;3.60;;;;;;;10.35;60.22;98486.44;4892548;29;20104;-79
2024/01/23 10:37:22;;;;;;;10.50;2.50;;;;;;;10.24;60.54;98486.06;4906861;29;20039;-78
2024/01/23 10:39:49;;;;;;;10.07;2.67;;;;;;;10.38;60.35;98479.00;4928270;29;20095;-79
2024/01/23 10:42:15;;;;;;;10.93;2.92;;;;;;;10.28;60.57;98478.63;4907928;29;20258;-78
2024/01/23 10:44:42;;;;;;;10.15;2.15;;;;;;;10.40;60.53;98466.59;4911972;29;20079;-78
2024/01/23 10:47:07;;;;;;;13.13;4.88;;;;;;;10.33;60.56;98478.81;4896014;29;20028;-79
2024/01/23 10:49:33;;;;;;;14.40;2.65;;;;;;;10.23;61.14;98473.25;4910316;29;20425;-78
2024/01/23 10:52:02;;;;;;;14.82;2.53;;;;;;;10.18;62.17;98475.69;4900027;29;20040;-78
2024/01/23 10:54:30;;;;;;;9.27;2.25;;;;;;;10.14;62.31;98480.50;4875890;29;20063;-78
2024/01/23 10:56:57;;;;;;;8.55;2.22;;;;;;;10.09;62.61;98470.75;4911000;29;21580;-78
2024/01/23 10:59:30;;;;;;;8.55;2.72;;;;;;;9.99;63.06;98473.00;4912032;29;20373;-77
2024/01/23 11:02:02;;;;;;;9.32;2.75;;;;;;;9.84;63.89;98470.66;4919703;29;20036;-79
2024/01/23 11:04:28;;;;;;;12.00;3.58;;;;;;;9.69;64.74;98483.13;4910902;29;20039;-78
2024/01/23 11:07:15;;;;;;;11.38;3.22;;;;;;;9.78;65.12;98481.88;4899310;29;20396;-78
2024/01/23 11:10:02;;;;;;;12.95;3.25;;;;;;;9.87;64.47;98480.66;4897071;29;20067;-82
2024/01/23 11:12:31;;;;;;;7.28;2.17;;;;;;;9.88;64.96;98484.84;4888573;29;20040;-78
2024/01/23 11:15:01;;;;;;;15.00;3.05;;;;;;;9.87;65.38;98488.47;4889505;29;20046;-79
2024/01/23 11:17:32;;;;;;;8.63;2.08;;;;;;;9.91;64.84;98487.03;4875015;29;20039;-79
2024/01/23 11:20:17;;;;;;;11.30;2.97;;;;;;;10.07;64.74;98484.97;4915627;29;20518;-79
2024/01/23 11:22:42;;;;;;;11.90;2.40;;;;;;;9.94;63.43;98484.03;4910279;29;20035;-78
2024/01/23 11:25:11;;;;;;;12.93;2.75;;;;;;;9.91;64.66;98487.03;4878856;29;20032;-77
2024/01/23 11:27:38;;;;;;;16.63;3.33;;;;;;;9.82;65.32;98488.28;4894364;29;20091;-79
2024/01/23 11:30:11;;;;;;;14.38;3.58;;;;;;;9.88;65.51;98484.84;4912375;29;20054;-78
2024/01/23 11:32:37;;;;;;;11.95;2.65;;;;;;;9.88;64.97;98486.66;4882426;29;20046;-82
2024/01/23 11:35:11;;;;;;;8.00;2.10;;;;;;;9.95;65.59;98487.41;4908341;29;20035;-78